createdAt,value
2024-04-08T00:50:28.992Z,100591.34
2024-04-08T00:52:56.272Z,100591.53
2024-04-08T00:55:23.846Z,100581.44
2024-04-08T00:57:51.147Z,100586.59
2024-04-08T01:00:17.676Z,100581.19
2024-04-08T01:02:44.345Z,100576.03
2024-04-08T01:05:15.047Z,100565.25
2024-04-08T01:07:47.064Z,100547.50
2024-04-08T01:10:14.248Z,100572.22
2024-04-08T01:12:44.081Z,100580.41
2024-04-08T01:15:11.223Z,100567.75
2024-04-08T01:17:37.806Z,100560.44
2024-04-08T01:20:04.815Z,100556.47
2024-04-08T01:22:32.522Z,100561.66
2024-04-08T01:24:59.905Z,100529.44
2024-04-08T01:27:27.226Z,100544.81
2024-04-08T01:29:54.000Z,100552.91
2024-04-08T01:32:20.757Z,100543.47
2024-04-08T01:34:47.267Z,100550.19
2024-04-08T01:37:13.764Z,100545.72
2024-04-08T01:39:40.569Z,100501.25
2024-04-08T01:42:07.129Z,100478.22
2024-04-08T01:44:33.691Z,100500.91
2024-04-08T01:47:00.333Z,100504.91
2024-04-08T01:49:29.064Z,100503.13
2024-04-08T01:51:55.662Z,100506.16
2024-04-08T01:54:22.657Z,100484.78
2024-04-08T01:56:58.214Z,100488.94
2024-04-08T01:59:24.756Z,100462.13
2024-04-08T02:01:51.261Z,100476.47
2024-04-08T02:04:17.749Z,100484.69
2024-04-08T02:06:44.222Z,100480.63
2024-04-08T02:09:10.710Z,100467.03
2024-04-08T02:11:37.475Z,100457.78
2024-04-08T02:14:04.097Z,100450.53
2024-04-08T02:16:31.149Z,100467.38
2024-04-08T02:18:57.659Z,100444.84
2024-04-08T02:21:24.170Z,100460.97
2024-04-08T02:23:50.710Z,100462.31
2024-04-08T02:26:17.204Z,100447.91
2024-04-08T02:28:43.694Z,100435.53
2024-04-08T02:31:10.231Z,100426.97
2024-04-08T02:33:36.833Z,100426.09
2024-04-08T02:36:06.066Z,100409.03
2024-04-08T02:38:34.216Z,100437.00
2024-04-08T02:41:01.323Z,100466.31
2024-04-08T02:43:27.950Z,100476.75
2024-04-08T02:45:54.489Z,100497.59
2024-04-08T02:48:21.973Z,100502.09
2024-04-08T02:50:49.051Z,100512.44
2024-04-08T02:53:15.677Z,100485.50
2024-04-08T02:55:42.184Z,100501.69
2024-04-08T02:58:08.742Z,100489.75
2024-04-08T03:00:41.602Z,100501.44
2024-04-08T03:03:08.166Z,100499.88
2024-04-08T03:05:34.723Z,100496.28
2024-04-08T03:08:01.562Z,100500.56
2024-04-08T03:10:28.097Z,100504.03
2024-04-08T03:12:54.938Z,100504.94
2024-04-08T03:15:21.485Z,100513.56
2024-04-08T03:17:48.267Z,100521.34
2024-04-08T03:20:14.972Z,100490.44
2024-04-08T03:22:41.617Z,100520.19
2024-04-08T03:25:08.392Z,100516.06
2024-04-08T03:27:35.008Z,100518.31
2024-04-08T03:30:01.574Z,100527.53
2024-04-08T03:32:28.110Z,100534.00
2024-04-08T03:34:54.633Z,100533.47
2024-04-08T03:37:27.548Z,100549.56
2024-04-08T03:39:54.054Z,100541.56
2024-04-08T03:42:22.526Z,100550.69
2024-04-08T03:44:49.938Z,100538.53
2024-04-08T03:47:16.753Z,100541.66
2024-04-08T03:49:43.823Z,100557.41
2024-04-08T03:52:10.333Z,100547.94
2024-04-08T03:54:36.903Z,100512.13
2024-04-08T03:57:03.625Z,100491.25
2024-04-08T03:59:30.175Z,100513.00
2024-04-08T04:01:58.793Z,100523.81
2024-04-08T04:04:25.639Z,100509.50
2024-04-08T04:06:52.184Z,100513.75
2024-04-08T04:09:18.906Z,100511.19
2024-04-08T04:11:45.436Z,100527.50
2024-04-08T04:14:12.014Z,100533.56
2024-04-08T04:16:38.497Z,100518.50
2024-04-08T04:19:05.073Z,100514.00
2024-04-08T04:21:31.591Z,100517.63
2024-04-08T04:23:58.120Z,100502.03
2024-04-08T04:26:24.662Z,100517.03
2024-04-08T04:28:51.148Z,100507.72
2024-04-08T04:31:17.914Z,100505.91
2024-04-08T04:33:44.435Z,100500.06
2024-04-08T04:36:10.968Z,100481.69
2024-04-08T04:38:37.508Z,100497.13
2024-04-08T04:41:06.955Z,100491.09
2024-04-08T04:43:34.042Z,100504.69
2024-04-08T04:46:00.875Z,100497.03
2024-04-08T04:48:27.754Z,100480.84
2024-04-08T04:50:54.772Z,100485.66
2024-04-08T04:53:21.902Z,100477.59
2024-04-08T04:55:54.722Z,100467.84
2024-04-08T04:58:24.519Z,100495.56
2024-04-08T05:00:51.573Z,100497.38
2024-04-08T05:03:19.996Z,100496.78
2024-04-08T05:05:57.384Z,100494.88
2024-04-08T05:08:24.724Z,100478.94
2024-04-08T05:10:51.590Z,100452.44
2024-04-08T05:13:19.397Z,100461.88
2024-04-08T05:16:15.561Z,100469.97
2024-04-08T05:18:42.066Z,100469.97
2024-04-08T05:21:10.459Z,100469.19
2024-04-08T05:23:37.001Z,100467.56
2024-04-08T05:26:04.332Z,100470.16
2024-04-08T05:28:30.947Z,100469.50
2024-04-08T05:30:57.545Z,100469.00
2024-04-08T05:33:24.194Z,100443.84
2024-04-08T05:35:50.790Z,100450.03
2024-04-08T05:38:17.426Z,100443.84
2024-04-08T05:40:44.053Z,100431.72
2024-04-08T05:43:15.834Z,100400.97
2024-04-08T05:45:43.094Z,100399.16
2024-04-08T05:48:10.182Z,100427.19
2024-04-08T05:50:36.760Z,100425.81
2024-04-08T05:53:03.349Z,100411.00
2024-04-08T05:55:31.866Z,100417.28
2024-04-08T05:57:58.537Z,100414.16
2024-04-08T06:00:25.297Z,100418.66
2024-04-08T06:02:53.448Z,100395.34
2024-04-08T06:05:21.273Z,100407.56
2024-04-08T06:07:50.531Z,100437.31
2024-04-08T06:10:18.353Z,100432.81
2024-04-08T06:12:45.619Z,100422.84
2024-04-08T06:15:13.993Z,100415.88
2024-04-08T06:17:40.592Z,100411.06
2024-04-08T06:20:07.779Z,100429.44
2024-04-08T06:22:36.528Z,100421.19
2024-04-08T06:25:04.025Z,100430.84
2024-04-08T06:27:30.894Z,100440.25
2024-04-08T06:29:57.537Z,100446.53
2024-04-08T06:32:24.619Z,100440.72
2024-04-08T06:34:51.165Z,100420.28
2024-04-08T06:37:17.715Z,100445.88
2024-04-08T06:39:44.306Z,100413.09
2024-04-08T06:42:18.240Z,100433.47
2024-04-08T06:44:49.005Z,100428.81
2024-04-08T06:47:15.741Z,100431.56
2024-04-08T06:49:43.206Z,100434.97
2024-04-08T06:52:09.715Z,100407.09
2024-04-08T06:54:36.340Z,100407.97
2024-04-08T06:57:03.107Z,100420.03
2024-04-08T06:59:29.763Z,100426.59
2024-04-08T07:01:56.889Z,100425.66
2024-04-08T07:04:23.711Z,100430.00
2024-04-08T07:06:50.333Z,100419.81
2024-04-08T07:09:16.825Z,100405.63
2024-04-08T07:11:44.183Z,100417.50
2024-04-08T07:14:10.725Z,100391.88
2024-04-08T07:16:37.374Z,100420.28
2024-04-08T07:19:04.245Z,100412.03
2024-04-08T07:21:30.736Z,100399.94
2024-04-08T07:23:57.265Z,100412.00
2024-04-08T07:26:23.841Z,100401.88
2024-04-08T07:28:52.045Z,100385.94
2024-04-08T07:31:19.132Z,100391.59
2024-04-08T07:33:45.699Z,100389.31
2024-04-08T07:36:12.202Z,100397.09
2024-04-08T07:38:52.564Z,100358.53
2024-04-08T07:41:25.267Z,100385.72
2024-04-08T07:43:51.787Z,100411.00
2024-04-08T07:46:18.366Z,100415.59
2024-04-08T07:48:46.866Z,100417.00
2024-04-08T07:51:13.766Z,100422.56
2024-04-08T07:53:40.358Z,100427.94
2024-04-08T07:56:06.899Z,100422.97
2024-04-08T07:58:34.877Z,100447.72
2024-04-08T08:01:01.490Z,100404.81
2024-04-08T08:03:28.272Z,100395.06
2024-04-08T08:05:55.983Z,100405.16
2024-04-08T08:08:26.208Z,100388.75
2024-04-08T08:10:53.476Z,100370.47
2024-04-08T08:13:20.202Z,100362.25
2024-04-08T08:15:56.868Z,100359.41
2024-04-08T08:18:23.905Z,100352.69
2024-04-08T08:20:51.790Z,100333.38
2024-04-08T08:23:18.504Z,100310.25
2024-04-08T08:25:47.011Z,100337.22
2024-04-08T08:28:13.655Z,100388.97
2024-04-08T08:30:41.581Z,100400.41
2024-04-08T08:33:08.460Z,100356.44
2024-04-08T08:35:35.073Z,100384.31
2024-04-08T08:38:01.587Z,100377.78
2024-04-08T08:40:28.528Z,100378.91
2024-04-08T08:42:57.170Z,100368.16
2024-04-08T08:45:24.284Z,100370.56
2024-04-08T08:47:50.925Z,100379.38
2024-04-08T08:50:17.573Z,100378.31
2024-04-08T08:52:44.429Z,100368.41
2024-04-08T08:55:11.547Z,100377.25
2024-04-08T08:57:39.027Z,100386.38
2024-04-08T09:00:07.171Z,100385.16
2024-04-08T09:02:36.131Z,100388.97
2024-04-08T09:05:02.827Z,100391.72
2024-04-08T09:07:29.317Z,100378.19
2024-04-08T09:09:57.313Z,100382.66
2024-04-08T09:12:24.230Z,100393.72
2024-04-08T09:14:52.548Z,100395.59
2024-04-08T09:17:20.019Z,100376.88
2024-04-08T09:19:46.593Z,100391.88
2024-04-08T09:22:13.230Z,100390.16
2024-04-08T09:24:40.242Z,100407.19
2024-04-08T09:27:07.248Z,100385.75
2024-04-08T09:29:34.025Z,100409.94
2024-04-08T09:32:01.973Z,100411.69
2024-04-08T09:34:30.134Z,100395.94
2024-04-08T09:36:57.208Z,100405.59
2024-04-08T09:39:25.127Z,100401.28
2024-04-08T09:41:53.125Z,100397.66
2024-04-08T09:44:20.871Z,100397.28
2024-04-08T09:46:48.339Z,100393.47
2024-04-08T09:49:21.514Z,100390.31
2024-04-08T09:51:53.236Z,100406.88
2024-04-08T09:54:22.647Z,100404.81
2024-04-08T09:56:56.985Z,100407.22
2024-04-08T09:59:25.721Z,100407.38
2024-04-08T10:01:55.059Z,100393.69
2024-04-08T10:04:23.597Z,100382.13
2024-04-08T10:06:50.960Z,100397.94
2024-04-08T10:09:22.052Z,100389.94
2024-04-08T10:11:53.008Z,100365.13
2024-04-08T10:14:20.776Z,100386.00
2024-04-08T10:16:53.682Z,100384.13
2024-04-08T10:19:22.239Z,100388.75
2024-04-08T10:21:53.398Z,100374.22
2024-04-08T10:24:38.421Z,100354.22
2024-04-08T10:27:09.375Z,100350.38
2024-04-08T10:29:39.281Z,100360.84
2024-04-08T10:32:07.691Z,100358.59
2024-04-08T10:34:37.811Z,100343.69
2024-04-08T10:37:04.664Z,100347.91
2024-04-08T10:39:31.189Z,100311.38
2024-04-08T10:42:15.311Z,100324.28
2024-04-08T10:44:43.105Z,100334.47
2024-04-08T10:47:10.299Z,100329.13
2024-04-08T10:49:37.107Z,100307.38
2024-04-08T10:52:04.000Z,100321.72
2024-04-08T10:54:32.332Z,100317.84
2024-04-08T10:56:58.851Z,100300.25
2024-04-08T10:59:25.370Z,100307.50
2024-04-08T11:01:51.928Z,100304.56
2024-04-08T11:04:19.302Z,100308.66
2024-04-08T11:06:46.198Z,100307.47
2024-04-08T11:09:12.842Z,100306.25
2024-04-08T11:11:39.418Z,100301.34
2024-04-08T11:14:06.674Z,100296.69
2024-04-08T11:16:33.707Z,100300.63
2024-04-08T11:19:02.123Z,100301.38
2024-04-08T11:21:28.905Z,100304.75
2024-04-08T11:23:55.540Z,100305.28
2024-04-08T11:26:23.277Z,100299.19
2024-04-08T11:28:49.758Z,100276.84
2024-04-08T11:31:16.261Z,100297.38
2024-04-08T11:33:42.888Z,100298.97
2024-04-08T11:36:09.812Z,100272.97
2024-04-08T11:38:37.086Z,100304.16
2024-04-08T11:41:07.735Z,100313.47
2024-04-08T11:43:35.284Z,100303.69
2024-04-08T11:46:04.555Z,100294.66
2024-04-08T11:48:32.071Z,100291.59
2024-04-08T11:50:58.989Z,100261.06
2024-04-08T11:53:25.591Z,100265.81
2024-04-08T11:55:52.179Z,100257.09
2024-04-08T11:58:18.692Z,100261.88
2024-04-08T12:00:45.238Z,100226.25
2024-04-08T12:03:11.792Z,100234.56
2024-04-08T12:05:38.375Z,100212.59
2024-04-08T12:08:05.098Z,100236.06
2024-04-08T12:10:31.690Z,100221.47
2024-04-08T12:13:14.592Z,100223.63
2024-04-08T12:15:41.107Z,100234.75
2024-04-08T12:18:08.054Z,100233.09
2024-04-08T12:20:37.427Z,100234.81
2024-04-08T12:23:04.091Z,100232.34
2024-04-08T12:25:32.457Z,100230.28
2024-04-08T12:28:00.302Z,100247.59
2024-04-08T12:30:29.850Z,100244.41
2024-04-08T12:32:56.406Z,100255.06
2024-04-08T12:35:22.987Z,100242.88
2024-04-08T12:37:49.723Z,100252.19
2024-04-08T12:40:16.232Z,100256.31
2024-04-08T12:42:42.737Z,100249.97
2024-04-08T12:45:14.911Z,100259.81
2024-04-08T12:47:42.583Z,100251.81
2024-04-08T12:50:09.447Z,100248.53
2024-04-08T12:52:36.350Z,100254.81
2024-04-08T12:55:04.373Z,100235.56
2024-04-08T12:57:31.254Z,100239.56
2024-04-08T12:59:57.865Z,100245.31
2024-04-08T13:02:27.008Z,100223.56
2024-04-08T13:04:54.695Z,100219.72
2024-04-08T13:07:22.269Z,100207.94
2024-04-08T13:09:50.164Z,100216.41
2024-04-08T13:12:16.868Z,100215.69
2024-04-08T13:14:44.069Z,100204.44
2024-04-08T13:17:10.843Z,100231.53
2024-04-08T13:19:37.369Z,100213.97
2024-04-08T13:22:04.498Z,100163.69
2024-04-08T13:24:32.055Z,100209.78
2024-04-08T13:26:58.770Z,100217.81
2024-04-08T13:29:25.348Z,100222.41
2024-04-08T13:31:52.079Z,100224.50
2024-04-08T13:34:18.968Z,100214.34
2024-04-08T13:36:45.766Z,100206.16
2024-04-08T13:39:12.322Z,100213.19
2024-04-08T13:41:39.766Z,100208.34
2024-04-08T13:44:06.372Z,100206.09
2024-04-08T13:46:33.433Z,100209.91
2024-04-08T13:48:59.974Z,100215.69
2024-04-08T13:51:26.531Z,100219.16
2024-04-08T13:53:54.495Z,100197.59
2024-04-08T13:56:21.346Z,100220.91
2024-04-08T13:58:50.830Z,100210.06
2024-04-08T14:01:18.030Z,100206.50
2024-04-08T14:03:45.038Z,100186.66
2024-04-08T14:06:13.690Z,100198.53
2024-04-08T14:08:40.636Z,100195.72
2024-04-08T14:11:07.316Z,100190.41
2024-04-08T14:13:33.885Z,100164.13
2024-04-08T14:16:00.406Z,100174.72
2024-04-08T14:18:27.080Z,100168.66
2024-04-08T14:20:53.638Z,100176.19
2024-04-08T14:23:20.112Z,100174.97
2024-04-08T14:25:46.605Z,100110.81
2024-04-08T14:28:13.449Z,100143.13
2024-04-08T14:30:40.058Z,100138.47
2024-04-08T14:33:07.261Z,100141.47
2024-04-08T14:35:34.115Z,100143.72
2024-04-08T14:38:21.592Z,100134.03
2024-04-08T14:40:47.280Z,100140.63
2024-04-08T14:43:18.930Z,100129.81
2024-04-08T14:45:52.687Z,100119.69
2024-04-08T14:48:19.511Z,100102.94
2024-04-08T14:50:47.727Z,100097.88
2024-04-08T14:53:15.703Z,100078.94
2024-04-08T14:55:43.302Z,100101.66
2024-04-08T14:58:10.041Z,100092.13
2024-04-08T15:00:36.739Z,100103.44
2024-04-08T15:03:04.280Z,100092.22
2024-04-08T15:05:31.354Z,100090.25
2024-04-08T15:07:57.881Z,100087.28
2024-04-08T15:10:25.265Z,100090.63
2024-04-08T15:12:51.885Z,100073.06
2024-04-08T15:15:18.511Z,100093.19
2024-04-08T15:17:46.019Z,100078.25
2024-04-08T15:20:12.710Z,100072.88
2024-04-08T15:22:39.396Z,100093.97
2024-04-08T15:25:06.043Z,100061.88
2024-04-08T15:27:32.936Z,100102.91
2024-04-08T15:30:00.006Z,100083.59
2024-04-08T15:32:26.975Z,100098.47
2024-04-08T15:34:53.627Z,100108.88
2024-04-08T15:37:20.341Z,100107.53
2024-04-08T15:39:46.854Z,100108.34
2024-04-08T15:42:13.402Z,100086.94
2024-04-08T15:44:39.974Z,100112.53
2024-04-08T15:47:06.852Z,100101.03
2024-04-08T15:49:33.363Z,100107.00
2024-04-08T15:51:59.858Z,100092.09
2024-04-08T15:54:26.951Z,100100.28
2024-04-08T15:56:54.005Z,100097.81
2024-04-08T15:59:20.883Z,100083.56
2024-04-08T16:01:48.503Z,100093.63
2024-04-08T16:04:15.457Z,100099.34
2024-04-08T16:06:42.462Z,100097.47
2024-04-08T16:09:10.088Z,100099.16
2024-04-08T16:11:36.874Z,100086.78
2024-04-08T16:14:03.466Z,100088.16
2024-04-08T16:16:30.305Z,100081.06
2024-04-08T16:18:57.074Z,100089.66
2024-04-08T16:21:25.516Z,100096.50
2024-04-08T16:23:55.730Z,100097.84
2024-04-08T16:26:23.804Z,100084.41
2024-04-08T16:29:02.823Z,100106.28
2024-04-08T16:31:32.828Z,100108.06
2024-04-08T16:34:01.008Z,100107.09
2024-04-08T16:36:30.418Z,100080.59
2024-04-08T16:38:58.103Z,100107.81
2024-04-08T16:41:24.743Z,100112.69
2024-04-08T16:43:51.412Z,100107.09
2024-04-08T16:46:19.778Z,100100.81
2024-04-08T16:48:46.479Z,100103.19
2024-04-08T16:51:13.173Z,100105.13
2024-04-08T16:53:41.253Z,100101.50
2024-04-08T16:56:07.829Z,100107.63
2024-04-08T16:58:34.361Z,100084.34
2024-04-08T17:01:00.970Z,100102.03
2024-04-08T17:03:29.290Z,100107.91
2024-04-08T17:06:07.244Z,100083.44
2024-04-08T17:08:34.101Z,100092.25
2024-04-08T17:11:04.669Z,100092.34
2024-04-08T17:13:32.189Z,100087.19
2024-04-08T17:15:59.241Z,100085.88
2024-04-08T17:18:26.740Z,100074.16
2024-04-08T17:20:57.071Z,100048.22
2024-04-08T17:23:26.415Z,100063.34
2024-04-08T17:25:54.471Z,100061.44
2024-04-08T17:28:21.112Z,100058.94
2024-04-08T17:30:54.365Z,100067.53
2024-04-08T17:33:21.167Z,100060.81
2024-04-08T17:35:58.738Z,100058.25
2024-04-08T17:38:26.199Z,100063.06
2024-04-08T17:40:58.039Z,100057.84
2024-04-08T17:43:24.549Z,100064.59
2024-04-08T17:45:51.148Z,100062.97
2024-04-08T17:48:17.896Z,100068.72
2024-04-08T17:50:58.996Z,100075.72
2024-04-08T17:53:29.775Z,100066.81
2024-04-08T17:56:07.499Z,100067.38
2024-04-08T17:58:35.942Z,100048.19
2024-04-08T18:01:05.030Z,100070.28
2024-04-08T18:03:32.500Z,100068.78
2024-04-08T18:06:15.858Z,100076.00
2024-04-08T18:08:45.387Z,100065.84
2024-04-08T18:11:13.127Z,100050.13
2024-04-08T18:13:40.671Z,100057.50
2024-04-08T18:16:13.831Z,100044.69
2024-04-08T18:18:45.474Z,100047.97
2024-04-08T18:21:12.612Z,100040.34
2024-04-08T18:23:39.461Z,100052.38
2024-04-08T18:26:16.146Z,100074.41
2024-04-08T18:28:43.651Z,100072.44
2024-04-08T18:31:14.926Z,100072.16
2024-04-08T18:33:42.657Z,100053.97
2024-04-08T18:36:13.902Z,100053.06
2024-04-08T18:38:40.892Z,100080.03
2024-04-08T18:41:09.360Z,100080.94
2024-04-08T18:43:37.938Z,100056.50
2024-04-08T18:46:08.962Z,100068.28
2024-04-08T18:48:36.089Z,100068.06
2024-04-08T18:51:04.839Z,100068.47
2024-04-08T18:53:31.801Z,100073.34
2024-04-08T18:55:58.372Z,100056.38
2024-04-08T18:58:24.945Z,100067.69
2024-04-08T19:00:51.618Z,100075.97
2024-04-08T19:03:18.464Z,100068.38
2024-04-08T19:05:48.094Z,100062.13
2024-04-08T19:08:16.246Z,100050.38
2024-04-08T19:10:43.891Z,100067.56
2024-04-08T19:13:10.844Z,100061.56
2024-04-08T19:15:37.911Z,100082.97
2024-04-08T19:18:05.215Z,100074.31
2024-04-08T19:20:32.017Z,100057.19
2024-04-08T19:22:58.536Z,100073.91
2024-04-08T19:25:26.019Z,100076.00
2024-04-08T19:27:55.503Z,100058.75
2024-04-08T19:30:23.018Z,100085.47
2024-04-08T19:32:50.195Z,100071.97
2024-04-08T19:35:16.981Z,100046.81
2024-04-08T19:37:44.536Z,100068.50
2024-04-08T19:40:11.666Z,100067.47
2024-04-08T19:42:38.252Z,100067.94
2024-04-08T19:45:05.830Z,100056.25
2024-04-08T19:47:34.335Z,100064.84
2024-04-08T19:50:02.369Z,100055.03
2024-04-08T19:52:29.355Z,100057.25
2024-04-08T19:54:56.005Z,100056.28
2024-04-08T19:57:22.641Z,100037.22
2024-04-08T19:59:49.227Z,100062.94
2024-04-08T20:02:15.786Z,100048.72
2024-04-08T20:04:42.689Z,100050.38
2024-04-08T20:07:09.219Z,100040.00
2024-04-08T20:09:36.065Z,100053.34
2024-04-08T20:12:02.701Z,100042.91
2024-04-08T20:14:29.235Z,100024.91
2024-04-08T20:16:55.797Z,100041.28
2024-04-08T20:19:22.489Z,100049.16
2024-04-08T20:21:49.839Z,99993.06
2024-04-08T20:24:16.767Z,100054.09
2024-04-08T20:26:43.484Z,100045.91
2024-04-08T20:29:10.762Z,99994.75
2024-04-08T20:31:37.267Z,100045.34
2024-04-08T20:34:06.580Z,100044.97
2024-04-08T20:36:33.765Z,100031.59
2024-04-08T20:39:00.424Z,100029.53
2024-04-08T20:41:26.977Z,99997.69
2024-04-08T20:43:53.477Z,100022.41
2024-04-08T20:46:20.222Z,100006.66
2024-04-08T20:48:46.974Z,100014.44
2024-04-08T20:51:13.729Z,99994.44
2024-04-08T20:53:40.647Z,100010.66
2024-04-08T20:56:08.836Z,99986.41
2024-04-08T20:58:35.878Z,100015.44
2024-04-08T21:01:06.633Z,100010.53
2024-04-08T21:03:33.307Z,100004.88
2024-04-08T21:06:04.943Z,99980.00
2024-04-08T21:08:32.358Z,100004.53
2024-04-08T21:11:02.723Z,99989.56
2024-04-08T21:13:36.763Z,99993.97
2024-04-08T21:16:06.089Z,100001.91
2024-04-08T21:18:34.131Z,100000.94
2024-04-08T21:21:05.910Z,100002.81
2024-04-08T21:23:34.048Z,99982.53
2024-04-08T21:26:10.832Z,99983.66
2024-04-08T21:28:38.740Z,99981.00
2024-04-08T21:31:06.099Z,99980.13
2024-04-08T21:33:37.230Z,99977.53
2024-04-08T21:36:05.030Z,99986.72
2024-04-08T21:38:32.235Z,99978.81
2024-04-08T21:41:09.294Z,99951.22
2024-04-08T21:43:36.075Z,99960.22
2024-04-08T21:46:04.446Z,99956.94
2024-04-08T21:48:32.859Z,99963.16
2024-04-08T21:51:00.976Z,99959.41
2024-04-08T21:53:28.208Z,99956.56
2024-04-08T21:56:00.283Z,99959.06
2024-04-08T21:58:28.141Z,99956.22
2024-04-08T22:00:56.570Z,99926.00
2024-04-08T22:03:25.298Z,99943.41
2024-04-08T22:05:52.224Z,99947.88
2024-04-08T22:08:19.092Z,99946.19
2024-04-08T22:10:46.020Z,99954.16
2024-04-08T22:13:12.800Z,99953.06
2024-04-08T22:15:39.852Z,99952.16
2024-04-08T22:18:07.434Z,99955.66
2024-04-08T22:20:34.416Z,99953.19
2024-04-08T22:23:05.853Z,99931.63
2024-04-08T22:25:32.798Z,99930.56
2024-04-08T22:27:59.778Z,99937.00
2024-04-08T22:30:26.431Z,99942.53
2024-04-08T22:32:53.191Z,99934.94
2024-04-08T22:35:20.565Z,99936.34
2024-04-08T22:37:47.185Z,99936.19
2024-04-08T22:40:13.698Z,99928.97
2024-04-08T22:42:40.403Z,99930.41
2024-04-08T22:45:07.317Z,99922.19
2024-04-08T22:47:34.109Z,99927.22
2024-04-08T22:50:00.658Z,99913.28
2024-04-08T22:52:27.181Z,99904.19
2024-04-08T22:54:53.720Z,99922.19
2024-04-08T22:57:20.282Z,99915.88
2024-04-08T22:59:46.782Z,99916.59
2024-04-08T23:02:13.294Z,99912.22
2024-04-08T23:04:40.422Z,99919.91
2024-04-08T23:07:06.968Z,99869.97
2024-04-08T23:09:34.185Z,99916.88
2024-04-08T23:12:00.833Z,99889.41
2024-04-08T23:14:27.441Z,99912.59
2024-04-08T23:16:53.940Z,99909.75
2024-04-08T23:19:20.524Z,99919.66
2024-04-08T23:21:47.101Z,99905.09
2024-04-08T23:24:13.713Z,99910.63
2024-04-08T23:26:40.259Z,99921.59
2024-04-08T23:29:06.733Z,99906.50
2024-04-08T23:31:33.467Z,99926.31
2024-04-08T23:34:00.233Z,99930.97
2024-04-08T23:36:26.932Z,99922.38
2024-04-08T23:38:53.527Z,99926.84
2024-04-08T23:41:20.410Z,99904.19
2024-04-08T23:43:47.612Z,99908.97
2024-04-08T23:46:14.120Z,99888.06
2024-04-08T23:48:40.856Z,99891.34
2024-04-08T23:51:08.366Z,99880.88
2024-04-08T23:53:34.926Z,99892.22
2024-04-08T23:56:01.438Z,99908.69
2024-04-08T23:58:27.991Z,99886.72
